createdAt,value
2023-02-12T00:02:18.876Z,31.10
2023-02-12T00:05:20.842Z,29.70
2023-02-12T00:08:22.575Z,28.20
2023-02-12T00:11:28.050Z,30.83
2023-02-12T00:14:29.818Z,28.63
2023-02-12T00:17:31.752Z,26.40
2023-02-12T00:20:33.602Z,26.27
2023-02-12T00:23:36.260Z,29.23
2023-02-12T00:26:38.222Z,27.73
2023-02-12T00:29:40.139Z,26.43
2023-02-12T00:32:41.980Z,33.23
2023-02-12T00:35:44.208Z,28.97
2023-02-12T00:38:46.942Z,31.03
2023-02-12T00:41:48.695Z,28.47
2023-02-12T00:44:50.491Z,34.67
2023-02-12T00:47:52.233Z,33.07
2023-02-12T00:50:54.001Z,31.43
2023-02-12T00:53:56.128Z,29.13
2023-02-12T00:56:58.117Z,29.87
2023-02-12T01:00:05.265Z,28.37
2023-02-12T01:03:07.148Z,33.37
2023-02-12T01:06:08.975Z,31.90
2023-02-12T01:09:11.187Z,27.43
2023-02-12T01:12:12.969Z,24.90
2023-02-12T01:15:15.819Z,30.07
2023-02-12T01:18:17.634Z,27.17
2023-02-12T01:21:25.819Z,28.83
2023-02-12T01:24:27.570Z,30.03
2023-02-12T01:27:29.442Z,32.33
2023-02-12T01:30:31.240Z,25.50
2023-02-12T01:33:33.011Z,35.57
2023-02-12T01:36:35.501Z,32.10
2023-02-12T01:39:38.121Z,31.30
2023-02-12T01:42:40.289Z,29.20
2023-02-12T01:45:48.704Z,32.50
2023-02-12T01:48:50.501Z,32.57
2023-02-12T01:52:04.859Z,27.23
2023-02-12T01:55:09.900Z,27.20
2023-02-12T01:58:11.705Z,27.20
2023-02-12T02:01:21.415Z,26.90
2023-02-12T02:04:28.779Z,29.67
2023-02-12T02:07:30.843Z,30.23
2023-02-12T02:10:32.654Z,24.33
2023-02-12T02:13:52.856Z,27.30
2023-02-12T02:17:04.885Z,25.33
2023-02-12T02:20:34.208Z,27.93
2023-02-12T02:24:13.765Z,27.70
2023-02-12T02:27:18.515Z,27.90
2023-02-12T02:30:48.978Z,28.57
2023-02-12T02:33:59.786Z,25.83
2023-02-12T02:37:27.820Z,26.90
2023-02-12T02:40:49.750Z,28.57
2023-02-12T02:43:52.888Z,24.87
2023-02-12T02:46:57.760Z,26.20
2023-02-12T02:50:07.778Z,27.63
2023-02-12T02:53:18.306Z,24.10
2023-02-12T02:56:23.551Z,27.60
2023-02-12T02:59:34.053Z,27.80
2023-02-12T03:02:40.191Z,28.97
2023-02-12T03:05:47.007Z,28.93
2023-02-12T03:08:54.985Z,28.50
2023-02-12T03:12:01.805Z,28.20
2023-02-12T03:15:10.316Z,23.60
2023-02-12T03:18:18.925Z,24.57
2023-02-12T03:21:53.974Z,30.90
2023-02-12T03:25:16.951Z,38.47
2023-02-12T03:28:23.007Z,27.53
2023-02-12T03:31:33.971Z,28.10
2023-02-12T03:34:47.415Z,32.73
2023-02-12T03:38:10.911Z,30.70
2023-02-12T03:41:22.568Z,26.57
2023-02-12T03:44:47.907Z,27.63
2023-02-12T03:48:02.786Z,32.00
2023-02-12T03:51:14.117Z,29.90
2023-02-12T03:54:19.887Z,28.17
2023-02-12T03:57:30.430Z,32.77
2023-02-12T04:00:32.142Z,31.90
2023-02-12T04:03:34.633Z,30.53
2023-02-12T04:06:37.054Z,30.57
2023-02-12T04:09:38.943Z,34.70
2023-02-12T04:13:19.372Z,29.90
2023-02-12T04:16:37.821Z,31.80
2023-02-12T04:20:03.503Z,29.80
2023-02-12T04:23:36.049Z,28.03
2023-02-12T04:26:47.760Z,34.33
2023-02-12T04:30:05.449Z,31.27
2023-02-12T04:33:10.935Z,24.60
2023-02-12T04:36:20.705Z,32.03
2023-02-12T04:39:28.116Z,27.03
2023-02-12T04:42:30.006Z,26.83
2023-02-12T04:45:35.345Z,28.57
2023-02-12T04:48:54.393Z,31.70
2023-02-12T04:51:56.353Z,30.67
2023-02-12T04:54:58.062Z,28.73
2023-02-12T04:57:59.958Z,31.57
2023-02-12T05:01:01.822Z,30.57
2023-02-12T05:04:04.750Z,37.67
2023-02-12T05:07:06.496Z,31.37
2023-02-12T05:10:09.127Z,28.17
2023-02-12T05:13:10.889Z,27.60
2023-02-12T05:16:12.602Z,30.80
2023-02-12T05:19:14.345Z,29.70
2023-02-12T05:22:16.092Z,30.40
2023-02-12T05:25:17.901Z,29.63
2023-02-12T05:28:19.875Z,30.37
2023-02-12T05:31:22.505Z,33.70
2023-02-12T05:34:24.384Z,34.97
2023-02-12T05:37:26.273Z,35.70
2023-02-12T05:40:28.049Z,34.13
2023-02-12T05:43:29.830Z,32.90
2023-02-12T05:46:32.509Z,29.43
2023-02-12T05:49:34.662Z,29.73
2023-02-12T05:52:36.366Z,33.77
2023-02-12T05:55:38.075Z,31.67
2023-02-12T05:58:41.754Z,37.83
2023-02-12T06:01:45.342Z,35.00
2023-02-12T06:04:48.663Z,32.70
2023-02-12T06:07:50.470Z,41.27
2023-02-12T06:10:52.230Z,26.73
2023-02-12T06:13:54.182Z,36.77
2023-02-12T06:16:56.024Z,40.57
2023-02-12T06:19:57.717Z,37.07
2023-02-12T06:22:59.414Z,37.87
2023-02-12T06:26:01.176Z,29.40
2023-02-12T06:29:03.175Z,34.00
2023-02-12T06:32:05.174Z,33.87
2023-02-12T06:35:07.289Z,34.20
2023-02-12T06:38:10.069Z,36.00
2023-02-12T06:41:12.044Z,39.27
2023-02-12T06:44:13.886Z,34.73
2023-02-12T06:47:15.564Z,33.67
2023-02-12T06:50:17.351Z,32.93
2023-02-12T06:53:19.189Z,35.30
2023-02-12T06:56:23.478Z,41.57
2023-02-12T06:59:25.176Z,37.27
2023-02-12T07:02:26.866Z,35.10
2023-02-12T07:05:28.657Z,42.90
2023-02-12T07:08:30.340Z,35.30
2023-02-12T07:11:36.868Z,34.27
2023-02-12T07:14:39.762Z,34.40
2023-02-12T07:17:41.610Z,37.63
2023-02-12T07:20:43.332Z,33.50
2023-02-12T07:23:51.401Z,35.77
2023-02-12T07:26:53.277Z,33.10
2023-02-12T07:29:54.963Z,33.13
2023-02-12T07:32:56.704Z,38.00
2023-02-12T07:36:00.787Z,34.60
2023-02-12T07:39:03.017Z,38.60
2023-02-12T07:42:04.794Z,35.00
2023-02-12T07:45:08.160Z,33.73
2023-02-12T07:48:09.994Z,38.90
2023-02-12T07:51:19.098Z,42.30
2023-02-12T07:54:20.822Z,36.57
2023-02-12T07:57:22.525Z,44.57
2023-02-12T08:00:24.317Z,44.90
2023-02-12T08:03:29.044Z,37.80
2023-02-12T08:06:33.799Z,43.70
2023-02-12T08:09:35.565Z,43.73
2023-02-12T08:12:37.285Z,33.90
2023-02-12T08:15:38.970Z,40.43
2023-02-12T08:18:40.882Z,39.27
2023-02-12T08:21:42.609Z,37.53
2023-02-12T08:24:44.395Z,37.60
2023-02-12T08:27:46.084Z,35.17
2023-02-12T08:30:47.815Z,41.00
2023-02-12T08:33:50.795Z,35.40
2023-02-12T08:36:54.179Z,37.23
2023-02-12T08:39:55.937Z,32.00
2023-02-12T08:42:57.617Z,41.27
2023-02-12T08:46:11.614Z,37.33
2023-02-12T08:49:19.252Z,36.50
2023-02-12T08:52:20.983Z,32.63
2023-02-12T08:55:22.701Z,37.10
2023-02-12T08:58:24.406Z,41.53
2023-02-12T09:01:28.235Z,35.20
2023-02-12T09:04:30.210Z,36.73
2023-02-12T09:07:32.001Z,33.50
2023-02-12T09:10:34.476Z,32.17
2023-02-12T09:13:36.613Z,32.73
2023-02-12T09:16:40.384Z,35.97
2023-02-12T09:19:42.309Z,31.93
2023-02-12T09:22:43.975Z,32.93
2023-02-12T09:25:46.285Z,36.67
2023-02-12T09:28:49.886Z,32.60
2023-02-12T09:31:51.685Z,37.70
2023-02-12T09:34:53.434Z,37.43
2023-02-12T09:37:55.165Z,36.03
2023-02-12T09:41:05.942Z,28.40
2023-02-12T09:44:25.851Z,28.43
2023-02-12T09:47:42.049Z,32.73
2023-02-12T09:50:56.828Z,28.47
2023-02-12T09:54:12.246Z,28.50
2023-02-12T09:57:34.555Z,26.73
2023-02-12T10:00:36.321Z,25.73
2023-02-12T10:03:38.027Z,22.47
2023-02-12T10:06:52.971Z,26.83
2023-02-12T10:10:09.627Z,20.70
2023-02-12T10:13:21.863Z,25.93
2023-02-12T10:16:59.743Z,23.87
2023-02-12T10:20:28.873Z,20.27
2023-02-12T10:23:36.689Z,24.20
2023-02-12T10:26:40.856Z,27.27
2023-02-12T10:29:45.682Z,23.57
2023-02-12T10:32:51.296Z,26.40
2023-02-12T10:35:59.609Z,20.27
2023-02-12T10:39:16.283Z,18.73
2023-02-12T10:42:41.006Z,26.50
2023-02-12T10:45:44.114Z,25.73
2023-02-12T10:48:49.550Z,23.13
2023-02-12T10:52:17.941Z,21.10
2023-02-12T10:55:27.337Z,20.10
2023-02-12T10:58:29.320Z,24.30
2023-02-12T11:01:37.058Z,63.60
2023-02-12T11:04:40.206Z,35.23
2023-02-12T11:07:50.951Z,19.93
2023-02-12T11:10:53.049Z,25.93
2023-02-12T11:14:02.394Z,14.93
2023-02-12T11:17:04.176Z,21.37
2023-02-12T11:20:17.598Z,18.20
2023-02-12T11:23:40.808Z,16.57
2023-02-12T11:26:42.787Z,19.60
2023-02-12T11:29:48.982Z,18.10
2023-02-12T11:32:52.158Z,19.63
2023-02-12T11:35:57.613Z,13.90
2023-02-12T11:39:00.568Z,12.60
2023-02-12T11:42:15.487Z,15.43
2023-02-12T11:45:19.761Z,13.70
2023-02-12T11:48:32.592Z,17.77
2023-02-12T11:51:34.556Z,12.17
2023-02-12T11:54:46.240Z,16.40
2023-02-12T11:57:51.213Z,16.93
2023-02-12T12:01:05.052Z,15.07
2023-02-12T12:04:12.746Z,16.20
2023-02-12T12:07:24.152Z,14.73
2023-02-12T12:10:46.233Z,11.40
2023-02-12T12:13:59.189Z,17.37
2023-02-12T12:17:24.643Z,11.97
2023-02-12T12:20:31.866Z,14.07
2023-02-12T12:23:55.103Z,15.87
2023-02-12T12:27:04.728Z,13.87
2023-02-12T12:30:17.974Z,15.40
2023-02-12T12:33:49.385Z,11.47
2023-02-12T12:37:20.183Z,10.50
2023-02-12T12:40:21.811Z,11.23
2023-02-12T12:43:47.411Z,21.90
2023-02-12T12:47:14.628Z,19.57
2023-02-12T12:50:43.355Z,18.17
2023-02-12T12:54:05.407Z,13.13
2023-02-12T12:57:28.801Z,15.87
2023-02-12T13:00:54.384Z,16.63
2023-02-12T13:04:20.282Z,14.80
2023-02-12T13:07:37.289Z,17.87
2023-02-12T13:10:50.523Z,14.77
2023-02-12T13:14:06.897Z,13.70
2023-02-12T13:17:35.740Z,14.53
2023-02-12T13:21:08.248Z,14.77
2023-02-12T13:24:43.280Z,25.27
2023-02-12T13:27:47.928Z,14.90
2023-02-12T13:30:51.744Z,16.60
2023-02-12T13:33:57.938Z,15.63
2023-02-12T13:37:06.263Z,15.20
2023-02-12T13:40:14.088Z,14.87
2023-02-12T13:43:49.052Z,14.17
2023-02-12T13:47:10.757Z,14.77
2023-02-12T13:50:41.209Z,14.63
2023-02-12T13:53:48.993Z,14.20
2023-02-12T13:56:53.462Z,14.57
2023-02-12T13:59:56.110Z,11.87
2023-02-12T14:02:57.842Z,11.83
2023-02-12T14:06:20.335Z,10.67
2023-02-12T14:09:35.308Z,16.27
2023-02-12T14:12:40.538Z,14.00
2023-02-12T14:15:47.528Z,14.90
2023-02-12T14:18:49.281Z,13.53
2023-02-12T14:21:50.960Z,16.77
2023-02-12T14:24:57.708Z,16.73
2023-02-12T14:28:31.345Z,21.03
2023-02-12T14:31:37.654Z,13.70
2023-02-12T14:34:39.947Z,16.03
2023-02-12T14:37:41.635Z,14.73
2023-02-12T14:40:47.279Z,12.13
2023-02-12T14:44:01.194Z,10.30
2023-02-12T14:47:06.872Z,11.40
2023-02-12T14:50:23.118Z,15.70
2023-02-12T14:53:34.649Z,13.50
2023-02-12T14:56:47.495Z,14.80
2023-02-12T14:59:49.619Z,16.33
2023-02-12T15:03:03.135Z,11.53
2023-02-12T15:06:16.397Z,16.13
2023-02-12T15:09:35.686Z,17.23
2023-02-12T15:12:42.507Z,19.57
2023-02-12T15:16:17.783Z,19.30
2023-02-12T15:19:29.132Z,15.57
2023-02-12T15:22:32.516Z,16.03
2023-02-12T15:25:34.258Z,16.67
2023-02-12T15:28:37.524Z,12.37
2023-02-12T15:31:39.721Z,14.37
2023-02-12T15:34:42.836Z,14.73
2023-02-12T15:37:46.782Z,12.10
2023-02-12T15:40:57.233Z,17.77
2023-02-12T15:44:01.183Z,12.43
2023-02-12T15:47:12.694Z,16.93
2023-02-12T15:50:17.719Z,12.20
2023-02-12T15:53:20.363Z,14.70
2023-02-12T15:56:24.580Z,12.00
2023-02-12T15:59:29.292Z,12.00
2023-02-12T16:02:33.057Z,12.20
2023-02-12T16:05:35.523Z,14.43
2023-02-12T16:08:38.634Z,10.93
2023-02-12T16:11:43.890Z,20.37
2023-02-12T16:14:54.513Z,13.20
2023-02-12T16:17:58.352Z,14.97
2023-02-12T16:21:13.474Z,12.53
2023-02-12T16:24:34.746Z,15.23
2023-02-12T16:27:36.572Z,17.43
2023-02-12T16:30:42.694Z,20.77
2023-02-12T16:33:53.176Z,18.83
2023-02-12T16:36:55.172Z,20.07
2023-02-12T16:39:56.866Z,16.50
2023-02-12T16:43:22.793Z,14.43
2023-02-12T16:46:24.546Z,20.47
2023-02-12T16:49:26.694Z,15.67
2023-02-12T16:52:34.880Z,16.47
2023-02-12T16:55:36.758Z,16.93
2023-02-12T16:58:38.464Z,17.93
2023-02-12T17:01:40.405Z,19.13
2023-02-12T17:04:42.557Z,18.43
2023-02-12T17:07:44.428Z,19.10
2023-02-12T17:10:48.067Z,21.50
2023-02-12T17:13:52.058Z,30.53
2023-02-12T17:16:53.808Z,26.20
2023-02-12T17:19:55.518Z,20.93
2023-02-12T17:22:59.393Z,23.30
2023-02-12T17:26:01.231Z,22.53
2023-02-12T17:29:05.305Z,17.10
2023-02-12T17:32:09.185Z,15.27
2023-02-12T17:35:11.171Z,19.73
2023-02-12T17:38:12.976Z,13.90
2023-02-12T17:41:14.752Z,21.73
2023-02-12T17:44:16.565Z,16.27
2023-02-12T17:47:18.529Z,16.53
2023-02-12T17:50:20.282Z,14.23
2023-02-12T17:53:22.394Z,15.07
2023-02-12T17:56:25.699Z,21.00
2023-02-12T17:59:27.432Z,26.47
2023-02-12T18:02:29.297Z,17.83
2023-02-12T18:05:31.061Z,18.70
2023-02-12T18:08:33.339Z,18.90
2023-02-12T18:11:35.423Z,21.87
2023-02-12T18:14:37.324Z,21.30
2023-02-12T18:17:42.538Z,23.17
2023-02-12T18:20:44.258Z,24.20
2023-02-12T18:23:46.400Z,22.37
2023-02-12T18:26:48.186Z,27.10
2023-02-12T18:29:49.941Z,27.13
2023-02-12T18:32:51.797Z,34.27
2023-02-12T18:36:02.009Z,31.47
2023-02-12T18:39:03.861Z,26.90
2023-02-12T18:42:06.431Z,33.87
2023-02-12T18:45:08.671Z,30.17
2023-02-12T18:48:11.939Z,28.63
2023-02-12T18:51:15.943Z,25.77
2023-02-12T18:54:17.626Z,20.97
2023-02-12T18:57:19.784Z,22.00
2023-02-12T19:00:21.864Z,21.47
2023-02-12T19:03:23.666Z,18.93
2023-02-12T19:06:26.727Z,19.70
2023-02-12T19:09:28.481Z,18.30
2023-02-12T19:12:30.213Z,21.27
2023-02-12T19:15:31.945Z,17.93
2023-02-12T19:18:33.693Z,21.17
2023-02-12T19:21:35.506Z,20.63
2023-02-12T19:24:46.160Z,17.27
2023-02-12T19:27:49.104Z,27.80
2023-02-12T19:30:50.800Z,24.90
2023-02-12T19:34:02.075Z,21.90
2023-02-12T19:37:03.855Z,25.23
2023-02-12T19:40:06.116Z,21.77
2023-02-12T19:43:07.879Z,24.63
2023-02-12T19:46:12.941Z,21.23
2023-02-12T19:49:26.688Z,24.57
2023-02-12T19:52:28.429Z,25.93
2023-02-12T19:55:30.098Z,25.97
2023-02-12T19:58:31.862Z,24.27
2023-02-12T20:01:34.810Z,21.97
2023-02-12T20:04:36.864Z,24.27
2023-02-12T20:07:38.574Z,24.97
2023-02-12T20:10:41.301Z,24.87
2023-02-12T20:13:43.128Z,27.27
2023-02-12T20:16:46.633Z,28.97
2023-02-12T20:19:48.349Z,31.40
2023-02-12T20:22:50.061Z,34.70
2023-02-12T20:25:51.915Z,35.17
2023-02-12T20:28:53.701Z,32.90
2023-02-12T20:31:55.505Z,37.67
2023-02-12T20:34:57.284Z,35.50
2023-02-12T20:37:59.043Z,34.43
2023-02-12T20:41:05.295Z,33.23
2023-02-12T20:44:11.021Z,27.57
2023-02-12T20:47:12.740Z,33.60
2023-02-12T20:50:14.434Z,32.73
2023-02-12T20:53:16.450Z,29.40
2023-02-12T20:56:21.508Z,32.27
2023-02-12T20:59:23.264Z,33.43
2023-02-12T21:02:25.010Z,39.53
2023-02-12T21:05:26.720Z,34.67
2023-02-12T21:08:29.213Z,41.20
2023-02-12T21:11:31.031Z,31.07
2023-02-12T21:14:32.874Z,28.63
2023-02-12T21:17:34.896Z,44.90
2023-02-12T21:20:36.661Z,31.43
2023-02-12T21:23:39.127Z,27.80
2023-02-12T21:26:40.955Z,32.03
2023-02-12T21:29:42.678Z,29.70
2023-02-12T21:32:44.632Z,28.67
2023-02-12T21:35:46.368Z,31.80
2023-02-12T21:38:49.351Z,45.83
2023-02-12T21:41:53.437Z,29.37
2023-02-12T21:44:55.174Z,44.13
2023-02-12T21:47:56.877Z,53.20
2023-02-12T21:50:59.082Z,34.23
2023-02-12T21:54:04.188Z,25.13
2023-02-12T21:57:05.880Z,31.47
2023-02-12T22:00:08.373Z,30.97
2023-02-12T22:03:14.161Z,30.57
2023-02-12T22:06:19.026Z,31.17
2023-02-12T22:09:22.609Z,26.63
2023-02-12T22:12:24.467Z,30.83
2023-02-12T22:15:26.225Z,28.03
2023-02-12T22:18:27.921Z,32.00
2023-02-12T22:21:34.815Z,28.67
2023-02-12T22:24:37.805Z,35.70
2023-02-12T22:27:39.508Z,60.27
2023-02-12T22:30:41.253Z,39.90
2023-02-12T22:33:43.016Z,36.70
2023-02-12T22:36:45.239Z,36.73
2023-02-12T22:39:46.957Z,38.10
2023-02-12T22:42:48.676Z,32.90
2023-02-12T22:45:50.420Z,28.67
2023-02-12T22:48:52.306Z,30.13
2023-02-12T22:51:54.064Z,32.10
2023-02-12T22:54:55.836Z,29.97
2023-02-12T22:57:58.301Z,31.53
2023-02-12T23:01:11.953Z,29.00
2023-02-12T23:04:18.070Z,25.67
2023-02-12T23:07:19.891Z,29.80
2023-02-12T23:10:21.626Z,26.03
2023-02-12T23:13:29.659Z,24.77
2023-02-12T23:16:32.170Z,24.77
2023-02-12T23:19:34.001Z,28.03
2023-02-12T23:22:35.696Z,27.33
2023-02-12T23:25:37.471Z,27.70
2023-02-12T23:28:39.180Z,26.83
2023-02-12T23:31:41.151Z,26.20
2023-02-12T23:34:43.229Z,26.50
2023-02-12T23:37:44.924Z,31.00
2023-02-12T23:40:48.191Z,29.23
2023-02-12T23:43:49.873Z,26.33
2023-02-12T23:46:53.762Z,29.53
2023-02-12T23:49:55.467Z,26.97
2023-02-12T23:52:58.452Z,27.90
2023-02-12T23:56:00.136Z,24.83
2023-02-12T23:59:01.858Z,28.27
